Time;durP1;ratioP1;P1;durP2;ratioP2;P2;SDS_P1;SDS_P2;PMS_P1;PMS_P2;Temp;Humidity;BMP_temperature;BMP_pressure;BME280_temperature;BME280_humidity;BME280_pressure;Samples;Min_cycle;Max_cycle;Signal;HPM_P1;HPM_P2
2021/10/18 05:49:47;;;;;;;6.10;4.25;;;16.90;68.20;;;;;;5728637;24;20041;-70
2021/10/18 05:52:13;;;;;;;6.13;3.72;;;17.00;68.50;;;;;;4790295;29;20072;-71
2021/10/18 05:54:39;;;;;;;5.22;3.20;;;16.90;68.70;;;;;;4802599;29;20146;-72
2021/10/18 05:57:05;;;;;;;7.63;3.50;;;16.90;68.50;;;;;;4793053;29;20379;-71
2021/10/18 05:59:30;;;;;;;5.10;3.05;;;17.10;68.60;;;;;;4796591;29;20143;-71
2021/10/18 06:01:56;;;;;;;7.97;3.92;;;17.20;68.60;;;;;;4809801;29;20382;-71
2021/10/18 06:04:21;;;;;;;7.93;4.90;;;17.30;68.00;;;;;;4808880;29;20058;-71
2021/10/18 06:06:47;;;;;;;4.97;3.30;;;16.80;67.30;;;;;;4824269;29;20047;-70
2021/10/18 06:09:14;;;;;;;7.55;3.17;;;16.90;69.30;;;;;;4809496;29;20057;-71
2021/10/18 06:11:40;;;;;;;6.90;3.33;;;17.00;69.70;;;;;;4809812;29;20128;-72
2021/10/18 06:14:06;;;;;;;8.75;3.58;;;17.10;69.50;;;;;;4808858;29;20050;-72
2021/10/18 06:16:32;;;;;;;9.00;3.20;;;17.30;69.60;;;;;;4793391;29;20063;-70
2021/10/18 06:18:57;;;;;;;6.55;3.45;;;17.40;69.60;;;;;;4808844;29;20051;-74
2021/10/18 06:21:24;;;;;;;5.65;2.70;;;17.40;69.50;;;;;;4809287;29;20046;-71
2021/10/18 06:23:50;;;;;;;4.72;2.88;;;17.50;69.60;;;;;;4809553;29;20386;-71
2021/10/18 06:26:15;;;;;;;8.00;4.13;;;17.50;69.50;;;;;;4793331;29;20069;-71
2021/10/18 06:28:42;;;;;;;8.18;3.20;;;17.60;68.10;;;;;;4809332;29;20050;-71
2021/10/18 06:31:08;;;;;;;7.18;2.83;;;17.70;69.50;;;;;;4809207;29;20058;-71
2021/10/18 06:33:34;;;;;;;7.40;3.40;;;17.90;69.50;;;;;;4808905;29;20470;-70
2021/10/18 06:36:01;;;;;;;5.40;3.00;;;18.10;69.60;;;;;;4808788;29;20577;-71
2021/10/18 06:38:27;;;;;;;7.43;3.00;;;18.20;69.20;;;;;;4808479;29;20050;-71
2021/10/18 06:40:52;;;;;;;6.10;2.70;;;18.20;69.20;;;;;;4808756;29;20077;-70
2021/10/18 06:43:19;;;;;;;9.38;3.03;;;18.30;69.30;;;;;;4809079;29;20054;-71
2021/10/18 06:45:46;;;;;;;5.32;2.40;;;18.30;69.10;;;;;;4808438;29;20501;-70
2021/10/18 06:48:14;;;;;;;5.50;2.90;;;18.30;68.90;;;;;;4804450;29;20459;-71
2021/10/18 06:50:41;;;;;;;8.25;3.83;;;18.40;69.20;;;;;;4781082;29;20577;-70
2021/10/18 06:53:14;;;;;;;7.20;2.60;;;18.40;68.80;;;;;;4803653;29;20055;-70
2021/10/18 06:55:40;;;;;;;5.53;2.70;;;18.50;69.20;;;;;;4804795;29;20062;-70
2021/10/18 06:58:07;;;;;;;10.25;3.15;;;18.50;69.00;;;;;;4793055;29;20119;-71
2021/10/18 07:00:34;;;;;;;10.63;3.00;;;18.60;69.00;;;;;;4808838;29;20428;-71
2021/10/18 07:02:59;;;;;;;6.30;2.30;;;18.70;69.00;;;;;;4808593;29;20054;-70
2021/10/18 07:05:25;;;;;;;4.57;3.00;;;18.80;68.90;;;;;;4808715;29;20141;-70
2021/10/18 07:07:51;;;;;;;7.60;2.92;;;18.90;68.60;;;;;;4805328;29;20484;-72
2021/10/18 07:10:16;;;;;;;9.40;3.40;;;18.90;68.30;;;;;;4802617;29;20053;-70
2021/10/18 07:12:42;;;;;;;9.38;2.72;;;18.90;67.70;;;;;;4808055;29;20051;-73
2021/10/18 07:15:09;;;;;;;8.52;2.60;;;19.00;68.00;;;;;;4789071;29;20139;-71
2021/10/18 07:17:35;;;;;;;6.72;2.67;;;19.10;68.00;;;;;;4801901;29;20057;-71
2021/10/18 07:20:03;;;;;;;8.02;2.72;;;19.10;67.80;;;;;;4790471;30;20055;-71
2021/10/18 07:22:41;;;;;;;8.88;3.05;;;19.10;67.70;;;;;;4790611;30;20412;-71
2021/10/18 07:25:07;;;;;;;10.02;4.90;;;19.10;67.90;;;;;;4790699;30;20439;-70
2021/10/18 07:27:33;;;;;;;14.73;4.72;;;19.10;67.00;;;;;;4790175;30;20391;-71
2021/10/18 07:29:59;;;;;;;14.80;5.25;;;19.10;66.20;;;;;;4785607;29;20050;-69
2021/10/18 07:32:25;;;;;;;14.40;4.78;;;19.00;66.40;;;;;;4808584;29;20047;-71
2021/10/18 07:34:51;;;;;;;19.85;4.85;;;19.00;66.50;;;;;;4807316;29;20126;-69
2021/10/18 07:37:22;;;;;;;16.02;4.32;;;18.90;66.70;;;;;;4790323;30;20059;-70
2021/10/18 07:39:48;;;;;;;17.27;4.65;;;18.90;66.90;;;;;;4791029;29;20043;-69
2021/10/18 07:42:14;;;;;;;14.50;3.97;;;18.90;67.20;;;;;;4784275;29;20136;-70
2021/10/18 07:44:41;;;;;;;12.43;4.50;;;18.80;67.30;;;;;;4792911;29;20047;-71
2021/10/18 07:47:07;;;;;;;20.50;3.83;;;18.80;67.40;;;;;;4808224;29;20565;-76
2021/10/18 07:49:36;;;;;;;10.25;5.43;;;18.70;67.60;;;;;;4807352;29;20111;-74
2021/10/18 07:52:03;;;;;;;11.77;5.47;;;18.70;65.80;;;;;;4778989;29;20071;-69
2021/10/18 07:54:30;;;;;;;10.98;5.20;;;18.60;66.40;;;;;;4790805;30;20144;-70
2021/10/18 07:56:56;;;;;;;9.57;4.85;;;18.60;66.50;;;;;;4790176;30;20047;-70
2021/10/18 07:59:22;;;;;;;10.32;4.90;;;18.60;66.60;;;;;;4790282;29;20155;-70
2021/10/18 08:01:48;;;;;;;12.10;4.50;;;18.50;66.60;;;;;;4775188;29;20507;-70
2021/10/18 08:04:13;;;;;;;17.30;4.75;;;18.50;66.70;;;;;;4790299;30;20055;-70
2021/10/18 08:06:39;;;;;;;6.70;4.18;;;18.40;66.70;;;;;;4774335;30;20065;-69
2021/10/18 08:09:08;;;;;;;10.43;4.75;;;18.40;66.70;;;;;;4774346;30;20474;-71
2021/10/18 08:11:34;;;;;;;9.75;5.20;;;18.40;66.80;;;;;;4789829;30;20138;-71
2021/10/18 08:14:00;;;;;;;13.77;4.38;;;18.30;66.80;;;;;;4790225;30;20436;-70
2021/10/18 08:16:26;;;;;;;12.02;4.70;;;18.30;66.90;;;;;;4774196;30;20094;-71
2021/10/18 08:18:52;;;;;;;8.82;4.03;;;18.30;67.00;;;;;;4774214;30;20059;-71
2021/10/18 08:21:18;;;;;;;9.40;4.50;;;18.20;67.00;;;;;;4792402;29;20055;-71
2021/10/18 08:23:44;;;;;;;8.02;3.60;;;18.20;67.00;;;;;;4791444;29;20136;-70
2021/10/18 08:26:12;;;;;;;9.32;4.20;;;18.20;67.10;;;;;;4808195;29;20061;-71
2021/10/18 08:28:37;;;;;;;10.07;3.92;;;18.20;67.80;;;;;;4809658;29;20053;-70
2021/10/18 08:31:03;;;;;;;9.57;4.10;;;18.10;67.20;;;;;;4796024;29;20129;-70
2021/10/18 08:33:29;;;;;;;8.48;3.90;;;18.10;67.30;;;;;;4795489;29;20058;-71
2021/10/18 08:35:55;;;;;;;12.18;4.88;;;18.10;67.40;;;;;;4811607;29;20062;-71
2021/10/18 08:38:46;;;;;;;6.63;3.55;;;18.10;67.50;;;;;;4796010;29;20058;-71
2021/10/18 08:46:06;;;;;;;8.63;4.20;;;18.00;67.70;;;;;;4807388;29;20142;-71
2021/10/18 08:48:33;;;;;;;5.68;3.28;;;18.00;67.70;;;;;;4793273;30;20510;-70
2021/10/18 08:50:59;;;;;;;5.70;3.78;;;17.90;67.70;;;;;;4792918;30;20065;-70
2021/10/18 08:53:25;;;;;;;6.05;3.75;;;17.90;67.80;;;;;;4777323;30;20478;-70
2021/10/18 08:55:51;;;;;;;6.25;3.92;;;17.90;67.80;;;;;;4793270;29;20487;-70
2021/10/18 08:58:17;;;;;;;4.32;3.40;;;17.90;67.80;;;;;;4792890;30;20431;-71
2021/10/18 09:00:51;;;;;;;7.45;4.00;;;17.90;67.80;;;;;;4793142;30;20054;-71
2021/10/18 09:03:26;;;;;;;8.18;4.28;;;17.90;67.90;;;;;;4792808;30;20061;-70
2021/10/18 09:06:07;;;;;;;5.10;3.45;;;17.80;67.90;;;;;;4792450;30;20065;-70
2021/10/18 09:08:41;;;;;;;5.35;3.70;;;17.80;68.00;;;;;;4792955;30;20427;-70
2021/10/18 09:11:12;;;;;;;5.80;3.45;;;17.80;67.90;;;;;;4794735;29;20424;-69
2021/10/18 09:13:51;;;;;;;9.27;4.30;;;17.80;68.00;;;;;;4810843;29;20138;-71
2021/10/18 09:16:34;;;;;;;7.88;3.30;;;17.80;68.00;;;;;;4794919;29;20051;-70
2021/10/18 09:19:05;;;;;;;5.93;3.85;;;17.80;68.00;;;;;;4795215;29;20354;-70
2021/10/18 09:21:40;;;;;;;6.47;3.78;;;17.80;68.10;;;;;;4810413;29;20138;-70
2021/10/18 09:24:08;;;;;;;5.35;3.63;;;17.80;68.10;;;;;;4810625;29;20063;-71
2021/10/18 09:26:35;;;;;;;5.47;3.70;;;17.70;68.10;;;;;;4810090;29;20058;-70
2021/10/18 09:29:05;;;;;;;5.88;3.60;;;17.70;68.10;;;;;;4810411;29;20054;-69
2021/10/18 09:31:31;;;;;;;4.72;3.60;;;17.80;68.20;;;;;;4794711;29;20051;-70
2021/10/18 09:34:08;;;;;;;6.75;3.90;;;17.70;68.10;;;;;;4794583;29;20378;-70
2021/10/18 09:36:35;;;;;;;4.32;3.50;;;17.70;68.00;;;;;;4794499;29;20120;-70
2021/10/18 09:39:17;;;;;;;5.63;3.53;;;17.70;68.10;;;;;;4792203;29;20119;-71
2021/10/18 09:41:59;;;;;;;5.35;3.75;;;17.70;67.90;;;;;;4796235;29;20055;-69
2021/10/18 10:53:27;;;;;;;5.63;4.57;;;17.70;68.40;;;;;;4774480;30;20067;-70
2021/10/18 10:55:55;;;;;;;5.78;4.80;;;17.70;68.40;;;;;;4791144;30;20063;-70
2021/10/18 10:58:53;;;;;;;6.55;4.95;;;17.70;68.40;;;;;;4790482;30;20144;-70
2021/10/18 11:01:41;;;;;;;5.65;4.95;;;17.70;68.30;;;;;;4790912;30;20108;-71
2021/10/18 11:04:29;;;;;;;4.82;4.32;;;17.70;68.40;;;;;;4791577;30;20055;-70
2021/10/18 11:06:58;;;;;;;5.28;4.22;;;17.70;68.40;;;;;;4775145;30;20054;-71
2021/10/18 11:09:48;;;;;;;4.97;4.45;;;17.70;68.50;;;;;;4790569;30;20067;-70
2021/10/18 11:12:17;;;;;;;6.03;4.78;;;17.70;68.40;;;;;;4775264;30;20059;-70
2021/10/18 11:14:52;;;;;;;5.63;4.60;;;17.70;68.50;;;;;;4790813;30;20063;-69
2021/10/18 11:17:18;;;;;;;5.80;4.50;;;17.70;68.50;;;;;;4790406;30;20479;-70
2021/10/18 11:19:59;;;;;;;5.60;4.82;;;17.70;68.60;;;;;;4790857;30;20207;-70
2021/10/18 11:22:31;;;;;;;5.72;4.75;;;17.70;68.50;;;;;;4788989;30;20109;-70
2021/10/18 11:24:57;;;;;;;5.25;4.57;;;17.70;68.50;;;;;;4789651;30;20059;-69
2021/10/18 11:27:28;;;;;;;6.25;4.80;;;17.70;68.50;;;;;;4756909;30;20467;-71
2021/10/18 11:29:59;;;;;;;5.53;4.88;;;17.70;68.50;;;;;;4772742;30;20062;-70
2021/10/18 11:32:25;;;;;;;6.03;4.97;;;17.70;68.50;;;;;;4787087;30;20116;-70
2021/10/18 11:35:12;;;;;;;5.55;4.70;;;17.70;68.60;;;;;;4772863;30;20060;-70
2021/10/18 11:37:47;;;;;;;6.88;5.45;;;17.70;68.50;;;;;;4756826;30;20060;-70
2021/10/18 11:40:14;;;;;;;6.35;5.43;;;17.70;68.50;;;;;;4772234;30;20094;-71
2021/10/18 11:42:56;;;;;;;6.82;5.60;;;17.70;68.50;;;;;;4772414;30;20467;-70
2021/10/18 11:45:24;;;;;;;6.63;4.85;;;17.60;68.50;;;;;;4756988;30;20433;-72
2021/10/18 11:47:50;;;;;;;6.47;5.32;;;17.70;69.10;;;;;;4772474;30;20333;-71
2021/10/18 11:50:20;;;;;;;6.15;5.18;;;17.70;68.50;;;;;;4773363;30;20122;-69
2021/10/18 11:52:56;;;;;;;6.63;5.20;;;17.70;68.50;;;;;;4799258;29;20063;-70
2021/10/18 11:55:27;;;;;;;6.10;5.20;;;17.70;68.50;;;;;;4808139;29;20157;-71
2021/10/18 11:57:55;;;;;;;6.40;5.35;;;17.70;68.50;;;;;;4792167;29;20050;-69
2021/10/18 12:00:26;;;;;;;5.55;4.90;;;17.70;68.60;;;;;;4792406;29;20178;-70
2021/10/18 12:02:59;;;;;;;6.28;5.20;;;17.70;68.50;;;;;;4791703;29;20055;-70
2021/10/18 12:05:25;;;;;;;5.50;4.80;;;17.60;68.60;;;;;;4779182;30;20050;-71
2021/10/18 12:07:51;;;;;;;6.22;5.28;;;17.70;68.70;;;;;;4790095;29;20467;-70
2021/10/18 12:10:19;;;;;;;6.18;5.32;;;17.70;68.60;;;;;;4790647;30;20322;-70
2021/10/18 12:13:05;;;;;;;6.38;4.90;;;17.70;68.50;;;;;;4790673;30;20212;-69
2021/10/18 12:15:36;;;;;;;5.32;4.60;;;17.70;68.50;;;;;;4774601;30;20441;-70
2021/10/18 12:18:02;;;;;;;6.53;4.90;;;17.70;68.50;;;;;;4774594;30;20387;-70
2021/10/18 12:20:28;;;;;;;5.25;4.63;;;17.60;68.60;;;;;;4773895;30;20066;-71
2021/10/18 12:23:05;;;;;;;5.88;5.22;;;17.60;68.60;;;;;;4789587;30;20051;-70
2021/10/18 12:25:35;;;;;;;5.68;4.63;;;17.60;68.60;;;;;;4789920;30;20375;-70
2021/10/18 12:28:28;;;;;;;6.95;5.40;;;17.60;68.50;;;;;;4774589;30;20056;-70
2021/10/18 12:30:55;;;;;;;5.90;5.18;;;17.60;68.50;;;;;;4774141;30;20055;-71
2021/10/18 12:33:21;;;;;;;5.30;4.80;;;17.60;68.60;;;;;;4789805;30;20055;-70
2021/10/18 12:35:58;;;;;;;5.85;5.22;;;17.70;68.60;;;;;;4803922;29;20090;-69
2021/10/18 12:38:27;;;;;;;7.20;4.85;;;17.70;68.50;;;;;;4808133;29;20328;-69
2021/10/18 12:41:08;;;;;;;6.68;5.25;;;17.70;68.60;;;;;;4807968;29;20393;-70
2021/10/18 12:43:34;;;;;;;7.85;5.03;;;17.70;68.60;;;;;;4792089;29;20142;-69
2021/10/18 12:46:14;;;;;;;5.68;4.80;;;17.70;68.60;;;;;;4808114;29;20150;-70
2021/10/18 12:48:40;;;;;;;5.82;4.97;;;17.70;68.60;;;;;;4791844;29;20495;-71
2021/10/18 12:51:06;;;;;;;6.60;5.20;;;17.60;68.60;;;;;;4801435;29;20074;-70
2021/10/18 12:53:33;;;;;;;6.35;5.18;;;17.60;68.50;;;;;;4789556;30;20087;-71
2021/10/18 12:56:00;;;;;;;7.00;4.93;;;17.70;68.60;;;;;;4789628;30;20121;-70
2021/10/18 12:58:27;;;;;;;5.93;5.07;;;17.60;68.60;;;;;;4789042;30;20054;-74
2021/10/18 13:00:53;;;;;;;15.02;7.85;;;17.60;68.60;;;;;;4783656;30;20051;-74
2021/10/18 13:03:22;;;;;;;16.48;10.77;;;17.60;67.50;;;;;;4773810;30;20047;-74
2021/10/18 13:05:55;;;;;;;14.18;11.57;;;17.70;65.80;;;;;;4759486;30;20055;-76
2021/10/18 13:08:25;;;;;;;16.35;11.35;;;17.60;64.90;;;;;;4785175;30;20467;-76
2021/10/18 13:10:52;;;;;;;15.65;11.50;;;17.60;65.00;;;;;;4773697;30;20113;-74
2021/10/18 13:13:21;;;;;;;18.30;11.55;;;17.50;64.90;;;;;;4781885;30;20087;-74
2021/10/18 13:15:49;;;;;;;17.65;11.32;;;17.50;64.80;;;;;;4781505;30;20059;-74
2021/10/18 13:18:16;;;;;;;14.75;10.85;;;17.50;65.00;;;;;;4758961;30;20472;-74
2021/10/18 13:20:43;;;;;;;16.40;10.10;;;17.60;65.30;;;;;;4774396;30;20099;-73
2021/10/18 13:23:10;;;;;;;14.27;9.80;;;17.60;65.90;;;;;;4743993;30;20091;-76
2021/10/18 13:25:39;;;;;;;13.00;9.85;;;17.60;65.40;;;;;;4759037;30;20056;-76
2021/10/18 13:28:06;;;;;;;16.25;9.60;;;17.60;65.60;;;;;;4774444;30;20059;-70
2021/10/18 13:30:36;;;;;;;14.93;9.68;;;17.60;65.70;;;;;;4773944;30;20479;-71
2021/10/18 13:33:03;;;;;;;11.63;9.57;;;17.50;65.90;;;;;;4780477;30;20128;-75
2021/10/18 13:35:30;;;;;;;12.77;8.45;;;17.50;66.60;;;;;;4791227;30;20051;-68
2021/10/18 13:37:56;;;;;;;12.20;7.55;;;17.50;66.20;;;;;;4774018;30;20055;-70
2021/10/18 13:40:25;;;;;;;11.60;6.90;;;17.70;66.30;;;;;;4774430;30;20087;-71
2021/10/18 13:42:50;;;;;;;11.80;6.40;;;17.80;66.20;;;;;;4758469;30;20048;-71
2021/10/18 13:45:19;;;;;;;11.18;7.10;;;17.90;66.10;;;;;;4774141;30;20109;-74
2021/10/18 13:47:46;;;;;;;11.13;6.07;;;18.10;66.30;;;;;;4789980;30;20055;-70
2021/10/18 13:50:13;;;;;;;9.18;5.35;;;18.10;66.20;;;;;;4788006;30;20067;-70
2021/10/18 13:52:39;;;;;;;10.80;4.97;;;18.20;66.30;;;;;;4801139;29;20095;-70
2021/10/18 13:55:05;;;;;;;9.02;5.35;;;18.20;66.20;;;;;;4780596;29;20083;-70
2021/10/18 13:57:33;;;;;;;10.45;5.22;;;18.30;66.20;;;;;;4802346;29;20458;-70
2021/10/18 13:59:59;;;;;;;12.13;6.65;;;18.30;66.10;;;;;;4808114;29;20086;-70
2021/10/18 14:02:25;;;;;;;7.93;4.45;;;18.40;66.00;;;;;;4800036;29;20086;-69
2021/10/18 14:04:57;;;;;;;8.25;5.35;;;18.40;66.90;;;;;;4784220;29;20123;-70
2021/10/18 14:07:24;;;;;;;10.40;6.30;;;18.40;66.20;;;;;;4809255;29;20115;-70
2021/10/18 14:09:53;;;;;;;13.07;5.60;;;18.30;66.20;;;;;;4796770;29;20062;-70
2021/10/18 14:12:18;;;;;;;11.20;5.20;;;18.30;66.50;;;;;;4816248;29;20054;-70
2021/10/18 14:14:44;;;;;;;8.02;4.65;;;18.40;66.60;;;;;;4822535;29;20054;-72
2021/10/18 14:17:10;;;;;;;8.20;5.18;;;18.40;66.80;;;;;;4810452;29;20054;-70
2021/10/18 14:19:36;;;;;;;7.10;4.57;;;18.40;66.90;;;;;;4806409;29;20467;-70
2021/10/18 14:22:03;;;;;;;12.82;5.35;;;18.40;67.00;;;;;;4791546;30;20502;-70
2021/10/18 14:24:32;;;;;;;10.32;4.80;;;18.50;67.10;;;;;;4799247;29;20555;-71
2021/10/18 14:27:00;;;;;;;8.93;4.45;;;18.50;67.20;;;;;;4808898;29;20110;-70
2021/10/18 14:29:26;;;;;;;9.63;5.03;;;18.50;67.30;;;;;;4809205;29;20085;-70
2021/10/18 14:31:51;;;;;;;9.93;4.60;;;18.50;67.30;;;;;;4808862;29;20143;-71
2021/10/18 14:34:17;;;;;;;10.60;4.40;;;18.50;67.40;;;;;;4809352;29;20082;-70
2021/10/18 14:36:44;;;;;;;13.38;4.25;;;18.50;67.40;;;;;;4808958;29;20058;-69
2021/10/18 14:39:10;;;;;;;6.63;4.18;;;18.60;67.40;;;;;;4808987;29;20137;-70
2021/10/18 14:41:35;;;;;;;11.10;3.92;;;18.60;67.40;;;;;;4809116;29;20133;-71
2021/10/18 14:44:02;;;;;;;13.02;4.63;;;18.70;67.20;;;;;;4793487;29;20055;-70
2021/10/18 14:46:29;;;;;;;11.10;4.25;;;18.80;67.00;;;;;;4793093;29;20082;-70
2021/10/18 14:48:56;;;;;;;10.70;4.78;;;18.90;66.90;;;;;;4809326;29;20046;-71
2021/10/18 14:51:23;;;;;;;15.48;4.40;;;19.00;66.60;;;;;;4808808;29;20067;-72
2021/10/18 14:53:53;;;;;;;11.40;4.38;;;19.00;66.60;;;;;;4808911;29;20135;-71
2021/10/18 14:56:20;;;;;;;14.98;4.97;;;19.10;66.40;;;;;;4808655;29;20050;-73
2021/10/18 14:58:46;;;;;;;15.25;4.47;;;19.20;66.40;;;;;;4793492;29;20099;-73
2021/10/18 15:01:12;;;;;;;10.02;4.05;;;19.20;66.50;;;;;;4808688;29;20051;-75
2021/10/18 15:03:40;;;;;;;11.40;5.95;;;19.30;66.60;;;;;;4808866;29;20051;-77
2021/10/18 15:06:10;;;;;;;13.40;5.55;;;19.40;67.80;;;;;;4788373;29;20061;-74
2021/10/18 15:08:36;;;;;;;12.43;5.35;;;19.30;67.00;;;;;;4803889;29;20133;-71
2021/10/18 15:11:02;;;;;;;8.90;5.18;;;19.30;67.40;;;;;;4808772;29;20058;-72
2021/10/18 15:13:29;;;;;;;14.52;5.40;;;19.30;67.30;;;;;;4790075;30;20083;-73
2021/10/18 15:15:55;;;;;;;14.43;5.65;;;19.30;67.80;;;;;;4790637;30;20055;-73
2021/10/18 15:18:20;;;;;;;11.55;5.28;;;19.30;68.20;;;;;;4790969;30;20422;-72
2021/10/18 15:20:47;;;;;;;13.30;5.25;;;19.20;68.50;;;;;;4790212;30;20134;-73
2021/10/18 15:23:12;;;;;;;10.38;5.20;;;19.20;68.70;;;;;;4789886;30;20059;-73
2021/10/18 15:25:39;;;;;;;11.45;5.75;;;19.20;69.10;;;;;;4790295;30;20138;-72
2021/10/18 15:28:05;;;;;;;12.35;5.13;;;19.20;69.30;;;;;;4789903;30;20058;-72
2021/10/18 15:30:30;;;;;;;11.65;5.75;;;19.10;69.60;;;;;;4790331;30;20048;-73
2021/10/18 15:32:56;;;;;;;11.32;5.50;;;19.10;69.60;;;;;;4790290;30;20121;-73
2021/10/18 15:35:22;;;;;;;10.65;4.43;;;19.10;70.00;;;;;;4790455;30;20490;-73
2021/10/18 15:37:48;;;;;;;10.10;4.75;;;19.00;70.20;;;;;;4789453;29;20063;-71
2021/10/18 15:40:17;;;;;;;12.95;5.40;;;19.00;70.20;;;;;;4790346;30;20446;-72
2021/10/18 15:42:44;;;;;;;9.88;5.25;;;18.90;70.40;;;;;;4790499;30;20051;-71
2021/10/18 15:45:10;;;;;;;12.20;4.93;;;18.90;70.40;;;;;;4790323;30;20066;-72
2021/10/18 15:47:36;;;;;;;8.25;4.95;;;18.90;70.90;;;;;;4790364;30;20424;-72
2021/10/18 15:50:04;;;;;;;10.32;5.03;;;18.90;70.80;;;;;;4808358;29;20046;-71
2021/10/18 15:52:30;;;;;;;10.27;5.25;;;18.90;71.00;;;;;;4791040;29;20059;-71
2021/10/18 15:54:56;;;;;;;9.48;5.57;;;18.80;71.00;;;;;;4807793;29;20448;-71
2021/10/18 15:57:22;;;;;;;10.65;5.30;;;18.80;71.50;;;;;;4808038;29;20104;-72
2021/10/18 15:59:48;;;;;;;9.32;5.20;;;18.80;71.70;;;;;;4808126;29;20086;-72
2021/10/18 16:02:13;;;;;;;9.52;5.35;;;18.80;71.90;;;;;;4789283;30;20047;-71
2021/10/18 16:04:39;;;;;;;10.38;5.03;;;18.70;71.60;;;;;;4807466;29;20058;-73
2021/10/18 16:07:05;;;;;;;7.13;4.70;;;18.70;72.00;;;;;;4807630;29;20401;-72
2021/10/18 16:09:31;;;;;;;6.88;4.25;;;18.70;71.20;;;;;;4807625;29;20054;-71
2021/10/18 16:11:56;;;;;;;10.43;5.10;;;18.60;71.00;;;;;;4788942;30;20460;-72
2021/10/18 16:14:22;;;;;;;13.55;5.28;;;18.60;71.10;;;;;;4817299;29;20352;-71
2021/10/18 16:16:48;;;;;;;7.13;4.40;;;18.60;70.30;;;;;;4791391;29;20070;-71
2021/10/18 16:19:14;;;;;;;9.75;4.97;;;18.50;70.20;;;;;;4807562;29;20042;-71
2021/10/18 16:21:40;;;;;;;9.57;4.82;;;18.50;70.60;;;;;;4806094;29;20510;-71
2021/10/18 16:24:07;;;;;;;8.88;4.68;;;18.50;71.40;;;;;;4792118;29;20054;-71
2021/10/18 16:26:34;;;;;;;11.35;4.10;;;18.50;70.70;;;;;;4776969;29;20058;-72
2021/10/18 16:29:01;;;;;;;11.60;4.82;;;18.50;71.40;;;;;;4807882;29;20055;-71
2021/10/18 16:31:27;;;;;;;10.52;4.70;;;18.40;71.50;;;;;;4807546;29;20062;-72
2021/10/18 16:33:53;;;;;;;8.00;4.57;;;18.50;71.60;;;;;;4805798;29;20051;-71
2021/10/18 16:36:20;;;;;;;7.28;4.28;;;18.50;71.50;;;;;;4777018;29;20076;-71
2021/10/18 16:38:46;;;;;;;7.97;4.57;;;18.40;71.40;;;;;;4807696;29;20537;-72
2021/10/18 17:47:26;;;;;;;17.88;6.72;;;17.90;73.00;;;;;;5392403;24;20158;-68
2021/10/18 17:49:52;;;;;;;10.73;5.32;;;17.80;72.70;;;;;;4772773;30;20075;-68
2021/10/18 17:52:18;;;;;;;11.15;6.18;;;17.80;73.30;;;;;;4756541;30;20052;-68
2021/10/18 17:54:45;;;;;;;13.85;6.10;;;17.80;73.00;;;;;;4759146;30;20044;-70
2021/10/18 17:57:11;;;;;;;11.23;6.78;;;17.70;73.30;;;;;;4758816;30;20051;-68
2021/10/18 17:59:37;;;;;;;11.88;6.70;;;17.70;73.50;;;;;;4789570;29;20058;-69
2021/10/18 18:02:04;;;;;;;9.57;6.20;;;17.60;73.40;;;;;;4784865;30;20067;-69
2021/10/18 18:04:29;;;;;;;12.55;5.57;;;17.70;73.50;;;;;;4773855;30;20098;-69
2021/10/18 18:06:55;;;;;;;11.07;6.47;;;17.60;73.70;;;;;;4767969;30;20091;-69
2021/10/18 18:09:22;;;;;;;9.80;5.78;;;17.60;73.90;;;;;;4773851;30;20099;-69
2021/10/18 18:11:48;;;;;;;9.95;6.05;;;17.60;74.00;;;;;;4773548;30;20060;-69
2021/10/18 18:14:14;;;;;;;9.98;6.50;;;17.60;74.00;;;;;;4772524;30;20051;-69
2021/10/18 18:16:40;;;;;;;11.80;7.55;;;17.60;74.10;;;;;;4775854;30;20055;-70
2021/10/18 18:19:06;;;;;;;11.75;6.60;;;17.60;74.50;;;;;;4791782;30;20148;-71
2021/10/18 18:21:31;;;;;;;7.95;5.75;;;17.60;73.80;;;;;;4789684;30;20138;-70
2021/10/18 18:23:58;;;;;;;9.38;6.15;;;17.60;73.80;;;;;;4773438;30;20464;-70
2021/10/18 18:26:24;;;;;;;9.40;6.07;;;17.60;73.80;;;;;;4773449;30;20052;-66
2021/10/18 18:28:52;;;;;;;10.48;5.82;;;17.60;73.90;;;;;;4763228;30;20081;-70
2021/10/18 18:31:18;;;;;;;9.43;6.18;;;17.60;73.90;;;;;;4754234;30;20123;-70
2021/10/18 18:33:44;;;;;;;10.63;6.30;;;17.60;73.90;;;;;;4773716;30;20050;-69
2021/10/18 18:36:10;;;;;;;8.45;5.88;;;17.60;74.10;;;;;;4760034;30;20044;-70
2021/10/18 18:38:36;;;;;;;9.85;6.35;;;17.60;74.20;;;;;;4773327;30;20074;-69
2021/10/18 18:41:02;;;;;;;11.32;6.85;;;17.60;74.10;;;;;;4778560;30;20055;-68
2021/10/18 18:43:28;;;;;;;8.23;6.32;;;17.60;74.20;;;;;;4777487;30;20479;-69
2021/10/18 18:45:54;;;;;;;10.50;6.60;;;17.60;74.10;;;;;;4780911;30;20055;-69
2021/10/18 18:48:20;;;;;;;11.68;6.30;;;17.60;74.10;;;;;;4797230;29;20054;-69
2021/10/18 18:50:48;;;;;;;8.95;6.32;;;17.60;73.90;;;;;;4791795;30;20547;-69
